sensor_id;sensor_type;location;lat;lon;timestamp;temperature;humidity
4602;DHT22;2313;48.552;9.370;2023-03-20T00:00:07;9.60;99.90
4602;DHT22;2313;48.552;9.370;2023-03-20T00:02:35;9.50;99.90
4602;DHT22;2313;48.552;9.370;2023-03-20T00:05:15;9.60;99.90
4602;DHT22;2313;48.552;9.370;2023-03-20T00:07:43;9.50;99.90
4602;DHT22;2313;48.552;9.370;2023-03-20T00:10:09;9.40;99.90
4602;DHT22;2313;48.552;9.370;2023-03-20T00:12:35;9.40;99.90
4602;DHT22;2313;48.552;9.370;2023-03-20T00:15:02;9.40;99.90
4602;DHT22;2313;48.552;9.370;2023-03-20T00:17:29;9.30;99.90
4602;DHT22;2313;48.552;9.370;2023-03-20T00:19:55;9.40;99.90
4602;DHT22;2313;48.552;9.370;2023-03-20T00:22:20;9.40;99.90
4602;DHT22;2313;48.552;9.370;2023-03-20T00:24:46;9.30;99.90
4602;DHT22;2313;48.552;9.370;2023-03-20T00:27:16;9.30;99.90
4602;DHT22;2313;48.552;9.370;2023-03-20T00:29:43;9.30;99.90
4602;DHT22;2313;48.552;9.370;2023-03-20T00:32:12;9.30;99.90
4602;DHT22;2313;48.552;9.370;2023-03-20T00:34:38;9.30;99.90
4602;DHT22;2313;48.552;9.370;2023-03-20T00:37:03;9.30;99.90
4602;DHT22;2313;48.552;9.370;2023-03-20T00:39:29;9.30;99.90
4602;DHT22;2313;48.552;9.370;2023-03-20T00:41:57;9.40;99.90
4602;DHT22;2313;48.552;9.370;2023-03-20T00:44:29;9.40;99.90
4602;DHT22;2313;48.552;9.370;2023-03-20T00:47:05;9.40;99.90
4602;DHT22;2313;48.552;9.370;2023-03-20T00:49:36;9.40;99.90
4602;DHT22;2313;48.552;9.370;2023-03-20T00:52:03;9.40;99.90
4602;DHT22;2313;48.552;9.370;2023-03-20T00:54:29;9.40;99.90
4602;DHT22;2313;48.552;9.370;2023-03-20T00:57:02;9.40;99.90
4602;DHT22;2313;48.552;9.370;2023-03-20T00:59:35;9.50;99.90
4602;DHT22;2313;48.552;9.370;2023-03-20T01:02:02;9.50;99.90
4602;DHT22;2313;48.552;9.370;2023-03-20T01:04:35;9.50;99.90
4602;DHT22;2313;48.552;9.370;2023-03-20T01:07:01;9.40;99.90
4602;DHT22;2313;48.552;9.370;2023-03-20T01:09:27;9.40;99.90
4602;DHT22;2313;48.552;9.370;2023-03-20T01:11:53;9.40;99.90
4602;DHT22;2313;48.552;9.370;2023-03-20T01:14:19;9.30;99.90
4602;DHT22;2313;48.552;9.370;2023-03-20T01:16:44;9.30;99.90
4602;DHT22;2313;48.552;9.370;2023-03-20T01:19:12;9.30;99.90
4602;DHT22;2313;48.552;9.370;2023-03-20T01:21:39;9.30;99.90
4602;DHT22;2313;48.552;9.370;2023-03-20T01:24:04;9.20;99.90
4602;DHT22;2313;48.552;9.370;2023-03-20T01:26:36;9.30;99.90
4602;DHT22;2313;48.552;9.370;2023-03-20T01:29:03;9.30;99.90
4602;DHT22;2313;48.552;9.370;2023-03-20T01:31:29;9.30;99.90
4602;DHT22;2313;48.552;9.370;2023-03-20T01:33:55;9.30;99.90
4602;DHT22;2313;48.552;9.370;2023-03-20T01:36:22;9.30;99.90
4602;DHT22;2313;48.552;9.370;2023-03-20T01:38:56;9.30;99.90
4602;DHT22;2313;48.552;9.370;2023-03-20T01:41:24;9.30;99.90
4602;DHT22;2313;48.552;9.370;2023-03-20T01:43:50;9.30;99.90
4602;DHT22;2313;48.552;9.370;2023-03-20T01:46:26;9.30;99.90
4602;DHT22;2313;48.552;9.370;2023-03-20T01:48:57;9.30;99.90
4602;DHT22;2313;48.552;9.370;2023-03-20T01:51:27;9.20;99.90
4602;DHT22;2313;48.552;9.370;2023-03-20T01:54:04;9.10;99.90
4602;DHT22;2313;48.552;9.370;2023-03-20T01:56:34;9.20;99.90
4602;DHT22;2313;48.552;9.370;2023-03-20T01:59:06;9.20;99.90
4602;DHT22;2313;48.552;9.370;2023-03-20T02:01:35;9.20;99.90
4602;DHT22;2313;48.552;9.370;2023-03-20T02:04:02;9.20;99.90
4602;DHT22;2313;48.552;9.370;2023-03-20T02:06:28;9.20;99.90
4602;DHT22;2313;48.552;9.370;2023-03-20T02:08:54;9.30;99.90
4602;DHT22;2313;48.552;9.370;2023-03-20T02:11:22;9.30;99.90
4602;DHT22;2313;48.552;9.370;2023-03-20T02:13:54;9.20;99.90
4602;DHT22;2313;48.552;9.370;2023-03-20T02:16:20;9.20;99.90
4602;DHT22;2313;48.552;9.370;2023-03-20T02:18:48;9.20;99.90
4602;DHT22;2313;48.552;9.370;2023-03-20T02:44:05;9.20;99.90
4602;DHT22;2313;48.552;9.370;2023-03-20T02:47:02;9.20;99.90
4602;DHT22;2313;48.552;9.370;2023-03-20T02:55:00;9.10;99.90
4602;DHT22;2313;48.552;9.370;2023-03-20T02:57:46;9.10;99.90
4602;DHT22;2313;48.552;9.370;2023-03-20T03:00:37;9.10;99.90
4602;DHT22;2313;48.552;9.370;2023-03-20T03:08:22;9.00;99.90
4602;DHT22;2313;48.552;9.370;2023-03-20T03:10:57;8.90;99.90
4602;DHT22;2313;48.552;9.370;2023-03-20T03:13:26;8.90;99.90
4602;DHT22;2313;48.552;9.370;2023-03-20T03:15:56;9.00;99.90
4602;DHT22;2313;48.552;9.370;2023-03-20T03:18:27;9.00;99.90
4602;DHT22;2313;48.552;9.370;2023-03-20T03:20:57;9.00;99.90
4602;DHT22;2313;48.552;9.370;2023-03-20T03:23:39;9.00;99.90
4602;DHT22;2313;48.552;9.370;2023-03-20T03:26:08;8.90;99.90
4602;DHT22;2313;48.552;9.370;2023-03-20T03:28:41;8.90;99.90
4602;DHT22;2313;48.552;9.370;2023-03-20T03:31:11;8.90;99.90
4602;DHT22;2313;48.552;9.370;2023-03-20T03:33:39;8.90;99.90
4602;DHT22;2313;48.552;9.370;2023-03-20T03:41:42;8.80;99.90
4602;DHT22;2313;48.552;9.370;2023-03-20T03:49:40;8.90;99.90
4602;DHT22;2313;48.552;9.370;2023-03-20T03:52:10;8.90;99.90
4602;DHT22;2313;48.552;9.370;2023-03-20T03:54:43;9.00;99.90
4602;DHT22;2313;48.552;9.370;2023-03-20T03:57:12;8.90;99.90
4602;DHT22;2313;48.552;9.370;2023-03-20T03:59:43;8.80;99.90
4602;DHT22;2313;48.552;9.370;2023-03-20T04:02:11;8.80;99.90
4602;DHT22;2313;48.552;9.370;2023-03-20T04:04:41;8.70;99.90
4602;DHT22;2313;48.552;9.370;2023-03-20T04:07:07;8.80;99.90
4602;DHT22;2313;48.552;9.370;2023-03-20T04:09:32;8.80;99.90
4602;DHT22;2313;48.552;9.370;2023-03-20T04:11:59;8.80;99.90
4602;DHT22;2313;48.552;9.370;2023-03-20T04:14:25;8.80;99.90
4602;DHT22;2313;48.552;9.370;2023-03-20T04:16:50;8.90;99.90
4602;DHT22;2313;48.552;9.370;2023-03-20T04:19:16;8.80;99.90
4602;DHT22;2313;48.552;9.370;2023-03-20T04:21:41;8.90;99.90
4602;DHT22;2313;48.552;9.370;2023-03-20T04:24:07;8.80;99.90
4602;DHT22;2313;48.552;9.370;2023-03-20T04:26:32;8.80;99.90
4602;DHT22;2313;48.552;9.370;2023-03-20T04:28:58;8.80;99.90
4602;DHT22;2313;48.552;9.370;2023-03-20T04:31:24;9.10;99.90
4602;DHT22;2313;48.552;9.370;2023-03-20T04:33:49;8.90;99.90
4602;DHT22;2313;48.552;9.370;2023-03-20T04:36:15;8.90;99.90
4602;DHT22;2313;48.552;9.370;2023-03-20T04:38:41;8.80;99.90
4602;DHT22;2313;48.552;9.370;2023-03-20T04:41:06;8.80;99.90
4602;DHT22;2313;48.552;9.370;2023-03-20T04:43:33;8.80;99.90
4602;DHT22;2313;48.552;9.370;2023-03-20T04:45:58;8.90;99.90
4602;DHT22;2313;48.552;9.370;2023-03-20T04:48:24;8.80;99.90
4602;DHT22;2313;48.552;9.370;2023-03-20T04:50:49;8.90;99.90
4602;DHT22;2313;48.552;9.370;2023-03-20T04:53:16;8.90;99.90
4602;DHT22;2313;48.552;9.370;2023-03-20T04:55:43;8.80;99.90
4602;DHT22;2313;48.552;9.370;2023-03-20T04:58:10;8.80;99.90
4602;DHT22;2313;48.552;9.370;2023-03-20T05:00:35;8.80;99.90
4602;DHT22;2313;48.552;9.370;2023-03-20T05:03:01;8.80;99.90
4602;DHT22;2313;48.552;9.370;2023-03-20T05:05:27;8.90;99.90
4602;DHT22;2313;48.552;9.370;2023-03-20T05:07:53;8.80;99.90
4602;DHT22;2313;48.552;9.370;2023-03-20T05:10:19;8.90;99.90
4602;DHT22;2313;48.552;9.370;2023-03-20T05:12:46;8.80;99.90
4602;DHT22;2313;48.552;9.370;2023-03-20T05:15:11;8.90;99.90
4602;DHT22;2313;48.552;9.370;2023-03-20T05:17:37;8.80;99.90
4602;DHT22;2313;48.552;9.370;2023-03-20T05:20:03;8.80;99.90
4602;DHT22;2313;48.552;9.370;2023-03-20T05:22:29;8.80;99.90
4602;DHT22;2313;48.552;9.370;2023-03-20T05:24:55;8.80;99.90
4602;DHT22;2313;48.552;9.370;2023-03-20T05:27:20;8.80;99.90
4602;DHT22;2313;48.552;9.370;2023-03-20T05:29:46;8.80;99.90
4602;DHT22;2313;48.552;9.370;2023-03-20T05:32:12;8.80;99.90
4602;DHT22;2313;48.552;9.370;2023-03-20T05:34:37;8.80;99.90
4602;DHT22;2313;48.552;9.370;2023-03-20T05:37:03;8.90;99.90
4602;DHT22;2313;48.552;9.370;2023-03-20T05:39:29;8.80;99.90
4602;DHT22;2313;48.552;9.370;2023-03-20T05:41:54;8.80;99.90
4602;DHT22;2313;48.552;9.370;2023-03-20T05:44:20;8.80;99.90
4602;DHT22;2313;48.552;9.370;2023-03-20T05:46:46;8.80;99.90
4602;DHT22;2313;48.552;9.370;2023-03-20T05:49:11;8.90;99.90
4602;DHT22;2313;48.552;9.370;2023-03-20T05:51:37;9.00;99.90
4602;DHT22;2313;48.552;9.370;2023-03-20T05:54:03;9.00;99.90
4602;DHT22;2313;48.552;9.370;2023-03-20T05:56:29;9.00;99.90
4602;DHT22;2313;48.552;9.370;2023-03-20T05:58:55;8.90;99.90
4602;DHT22;2313;48.552;9.370;2023-03-20T06:01:20;8.90;99.90
4602;DHT22;2313;48.552;9.370;2023-03-20T06:03:47;9.00;99.90
4602;DHT22;2313;48.552;9.370;2023-03-20T06:06:13;9.00;99.90
4602;DHT22;2313;48.552;9.370;2023-03-20T06:08:40;9.00;99.90
4602;DHT22;2313;48.552;9.370;2023-03-20T06:11:06;9.00;99.90
4602;DHT22;2313;48.552;9.370;2023-03-20T06:13:32;9.00;99.90
4602;DHT22;2313;48.552;9.370;2023-03-20T06:15:57;9.00;99.90
4602;DHT22;2313;48.552;9.370;2023-03-20T06:18:23;9.10;99.90
4602;DHT22;2313;48.552;9.370;2023-03-20T06:20:53;9.10;99.90
4602;DHT22;2313;48.552;9.370;2023-03-20T06:23:19;9.10;99.90
4602;DHT22;2313;48.552;9.370;2023-03-20T06:25:45;9.20;99.90
4602;DHT22;2313;48.552;9.370;2023-03-20T06:28:10;9.20;99.90
4602;DHT22;2313;48.552;9.370;2023-03-20T06:30:36;9.30;99.90
4602;DHT22;2313;48.552;9.370;2023-03-20T06:33:03;9.30;99.90
4602;DHT22;2313;48.552;9.370;2023-03-20T06:35:30;9.20;99.90
4602;DHT22;2313;48.552;9.370;2023-03-20T06:37:57;9.20;99.90
4602;DHT22;2313;48.552;9.370;2023-03-20T06:40:23;9.20;99.90
4602;DHT22;2313;48.552;9.370;2023-03-20T06:42:49;9.20;99.90
4602;DHT22;2313;48.552;9.370;2023-03-20T06:45:14;9.30;99.90
4602;DHT22;2313;48.552;9.370;2023-03-20T06:47:40;9.20;99.90
4602;DHT22;2313;48.552;9.370;2023-03-20T06:50:06;9.30;99.90
4602;DHT22;2313;48.552;9.370;2023-03-20T06:52:32;9.40;99.90
4602;DHT22;2313;48.552;9.370;2023-03-20T06:54:58;9.40;99.90
4602;DHT22;2313;48.552;9.370;2023-03-20T06:57:23;9.40;99.90
4602;DHT22;2313;48.552;9.370;2023-03-20T06:59:49;9.40;99.90
4602;DHT22;2313;48.552;9.370;2023-03-20T07:02:15;9.40;99.90
4602;DHT22;2313;48.552;9.370;2023-03-20T07:04:41;9.40;99.90
4602;DHT22;2313;48.552;9.370;2023-03-20T07:07:07;9.40;99.90
4602;DHT22;2313;48.552;9.370;2023-03-20T07:09:33;9.60;99.90
4602;DHT22;2313;48.552;9.370;2023-03-20T07:11:58;9.60;99.90
4602;DHT22;2313;48.552;9.370;2023-03-20T07:14:24;9.70;99.90
4602;DHT22;2313;48.552;9.370;2023-03-20T07:16:50;9.60;99.90
4602;DHT22;2313;48.552;9.370;2023-03-20T07:19:16;9.60;99.90
4602;DHT22;2313;48.552;9.370;2023-03-20T07:21:43;9.60;99.90
4602;DHT22;2313;48.552;9.370;2023-03-20T07:24:09;9.40;99.90
4602;DHT22;2313;48.552;9.370;2023-03-20T07:26:34;9.70;99.90
4602;DHT22;2313;48.552;9.370;2023-03-20T07:29:00;9.90;99.90
4602;DHT22;2313;48.552;9.370;2023-03-20T07:31:27;9.90;99.90
4602;DHT22;2313;48.552;9.370;2023-03-20T07:33:56;10.00;99.90
4602;DHT22;2313;48.552;9.370;2023-03-20T07:36:22;10.20;99.90
4602;DHT22;2313;48.552;9.370;2023-03-20T07:38:47;10.30;99.90
4602;DHT22;2313;48.552;9.370;2023-03-20T07:41:13;10.40;99.90
4602;DHT22;2313;48.552;9.370;2023-03-20T07:43:38;10.30;99.90
4602;DHT22;2313;48.552;9.370;2023-03-20T07:46:06;10.20;99.90
4602;DHT22;2313;48.552;9.370;2023-03-20T07:48:32;10.30;99.90
4602;DHT22;2313;48.552;9.370;2023-03-20T07:50:58;10.40;99.90
4602;DHT22;2313;48.552;9.370;2023-03-20T07:53:23;10.50;99.90
4602;DHT22;2313;48.552;9.370;2023-03-20T07:55:49;10.50;99.90
4602;DHT22;2313;48.552;9.370;2023-03-20T07:58:15;10.40;99.90
4602;DHT22;2313;48.552;9.370;2023-03-20T08:00:41;10.30;99.90
4602;DHT22;2313;48.552;9.370;2023-03-20T08:03:06;10.30;99.90
4602;DHT22;2313;48.552;9.370;2023-03-20T08:05:32;10.30;99.90
4602;DHT22;2313;48.552;9.370;2023-03-20T08:07:58;10.40;99.90
4602;DHT22;2313;48.552;9.370;2023-03-20T08:10:23;10.60;99.90
4602;DHT22;2313;48.552;9.370;2023-03-20T08:12:50;10.70;99.90
4602;DHT22;2313;48.552;9.370;2023-03-20T08:15:15;10.90;99.90
4602;DHT22;2313;48.552;9.370;2023-03-20T08:17:45;10.80;99.90
4602;DHT22;2313;48.552;9.370;2023-03-20T08:20:12;10.80;99.90
4602;DHT22;2313;48.552;9.370;2023-03-20T08:22:38;10.70;99.90
4602;DHT22;2313;48.552;9.370;2023-03-20T08:25:05;10.90;99.90
4602;DHT22;2313;48.552;9.370;2023-03-20T08:27:33;10.90;99.90
4602;DHT22;2313;48.552;9.370;2023-03-20T08:29:58;11.00;99.90
4602;DHT22;2313;48.552;9.370;2023-03-20T08:32:24;11.20;99.90
4602;DHT22;2313;48.552;9.370;2023-03-20T08:34:51;11.10;99.90
4602;DHT22;2313;48.552;9.370;2023-03-20T08:37:16;11.10;99.90
4602;DHT22;2313;48.552;9.370;2023-03-20T08:39:42;11.30;99.90
4602;DHT22;2313;48.552;9.370;2023-03-20T08:42:07;11.40;99.90
4602;DHT22;2313;48.552;9.370;2023-03-20T08:44:33;11.50;99.90
4602;DHT22;2313;48.552;9.370;2023-03-20T08:46:58;11.40;99.90
4602;DHT22;2313;48.552;9.370;2023-03-20T08:49:24;11.60;99.90
4602;DHT22;2313;48.552;9.370;2023-03-20T08:51:50;11.70;99.90
4602;DHT22;2313;48.552;9.370;2023-03-20T08:54:15;11.80;99.90
4602;DHT22;2313;48.552;9.370;2023-03-20T08:56:45;11.80;99.90
4602;DHT22;2313;48.552;9.370;2023-03-20T08:59:11;11.60;99.90
4602;DHT22;2313;48.552;9.370;2023-03-20T09:01:37;11.60;99.90
4602;DHT22;2313;48.552;9.370;2023-03-20T09:04:03;11.80;99.90
4602;DHT22;2313;48.552;9.370;2023-03-20T09:06:29;11.80;99.90
4602;DHT22;2313;48.552;9.370;2023-03-20T09:08:55;12.00;99.90
4602;DHT22;2313;48.552;9.370;2023-03-20T09:11:22;12.00;99.90
4602;DHT22;2313;48.552;9.370;2023-03-20T09:13:47;12.10;99.90
4602;DHT22;2313;48.552;9.370;2023-03-20T09:16:13;12.10;99.90
4602;DHT22;2313;48.552;9.370;2023-03-20T09:18:39;12.20;99.90
4602;DHT22;2313;48.552;9.370;2023-03-20T09:21:05;12.20;99.90
4602;DHT22;2313;48.552;9.370;2023-03-20T09:23:31;12.20;99.90
4602;DHT22;2313;48.552;9.370;2023-03-20T09:25:57;12.30;99.90
4602;DHT22;2313;48.552;9.370;2023-03-20T09:28:22;12.40;99.90
4602;DHT22;2313;48.552;9.370;2023-03-20T09:30:48;12.60;99.90
4602;DHT22;2313;48.552;9.370;2023-03-20T09:33:14;12.90;99.90
4602;DHT22;2313;48.552;9.370;2023-03-20T09:35:40;12.80;98.50
4602;DHT22;2313;48.552;9.370;2023-03-20T09:38:06;12.80;99.90
4602;DHT22;2313;48.552;9.370;2023-03-20T09:52:11;13.20;98.00
4602;DHT22;2313;48.552;9.370;2023-03-20T09:54:24;13.40;98.20
4602;DHT22;2313;48.552;9.370;2023-03-20T09:56:51;13.50;98.20
4602;DHT22;2313;48.552;9.370;2023-03-20T09:59:19;13.60;97.60
4602;DHT22;2313;48.552;9.370;2023-03-20T10:01:58;13.50;96.70
4602;DHT22;2313;48.552;9.370;2023-03-20T10:04:25;13.20;95.20
4602;DHT22;2313;48.552;9.370;2023-03-20T10:06:53;13.10;95.50
4602;DHT22;2313;48.552;9.370;2023-03-20T10:09:24;13.10;96.20
4602;DHT22;2313;48.552;9.370;2023-03-20T10:12:16;13.20;96.90
4602;DHT22;2313;48.552;9.370;2023-03-20T10:15:21;13.30;95.00
4602;DHT22;2313;48.552;9.370;2023-03-20T10:18:08;13.20;95.00
4602;DHT22;2313;48.552;9.370;2023-03-20T10:21:02;13.30;95.70
4602;DHT22;2313;48.552;9.370;2023-03-20T10:23:52;13.40;95.30
4602;DHT22;2313;48.552;9.370;2023-03-20T10:26:21;13.50;95.70
4602;DHT22;2313;48.552;9.370;2023-03-20T10:28:50;13.50;96.40
4602;DHT22;2313;48.552;9.370;2023-03-20T10:31:42;13.40;92.70
4602;DHT22;2313;48.552;9.370;2023-03-20T10:34:25;13.40;92.30
4602;DHT22;2313;48.552;9.370;2023-03-20T10:37:21;13.30;91.80
4602;DHT22;2313;48.552;9.370;2023-03-20T10:42:38;13.00;94.80
4602;DHT22;2313;48.552;9.370;2023-03-20T10:47:35;13.00;95.60
4602;DHT22;2313;48.552;9.370;2023-03-20T10:50:10;13.00;96.10
4602;DHT22;2313;48.552;9.370;2023-03-20T10:52:40;12.80;95.40
4602;DHT22;2313;48.552;9.370;2023-03-20T10:55:14;12.80;95.30
4602;DHT22;2313;48.552;9.370;2023-03-20T10:57:45;12.70;96.30
4602;DHT22;2313;48.552;9.370;2023-03-20T11:00:19;12.70;96.50
4602;DHT22;2313;48.552;9.370;2023-03-20T11:02:45;12.50;97.30
4602;DHT22;2313;48.552;9.370;2023-03-20T11:08:03;12.30;99.30
4602;DHT22;2313;48.552;9.370;2023-03-20T11:10:32;12.30;99.90
4602;DHT22;2313;48.552;9.370;2023-03-20T11:13:12;12.30;99.90
4602;DHT22;2313;48.552;9.370;2023-03-20T11:15:39;12.20;99.90
4602;DHT22;2313;48.552;9.370;2023-03-20T11:18:06;12.20;99.90
4602;DHT22;2313;48.552;9.370;2023-03-20T11:20:48;12.20;99.90
4602;DHT22;2313;48.552;9.370;2023-03-20T11:23:23;12.30;99.90
4602;DHT22;2313;48.552;9.370;2023-03-20T11:25:55;12.30;99.90
4602;DHT22;2313;48.552;9.370;2023-03-20T11:28:31;12.70;99.90
4602;DHT22;2313;48.552;9.370;2023-03-20T11:30:59;13.30;99.80
4602;DHT22;2313;48.552;9.370;2023-03-20T11:33:27;13.60;97.50
4602;DHT22;2313;48.552;9.370;2023-03-20T11:35:55;14.10;97.40
4602;DHT22;2313;48.552;9.370;2023-03-20T11:38:21;14.20;95.30
4602;DHT22;2313;48.552;9.370;2023-03-20T11:40:48;14.50;96.00
4602;DHT22;2313;48.552;9.370;2023-03-20T11:43:24;14.90;95.20
4602;DHT22;2313;48.552;9.370;2023-03-20T11:45:57;14.90;92.80
4602;DHT22;2313;48.552;9.370;2023-03-20T11:48:44;15.00;93.10
4602;DHT22;2313;48.552;9.370;2023-03-20T11:51:20;15.20;92.50
4602;DHT22;2313;48.552;9.370;2023-03-20T11:56:23;15.40;91.80
4602;DHT22;2313;48.552;9.370;2023-03-20T11:59:02;15.60;91.10
4602;DHT22;2313;48.552;9.370;2023-03-20T12:01:40;15.50;92.10
4602;DHT22;2313;48.552;9.370;2023-03-20T12:04:18;15.40;90.90
4602;DHT22;2313;48.552;9.370;2023-03-20T12:06:52;15.40;90.30
4602;DHT22;2313;48.552;9.370;2023-03-20T12:09:44;15.20;89.80
4602;DHT22;2313;48.552;9.370;2023-03-20T12:12:28;15.30;89.00
4602;DHT22;2313;48.552;9.370;2023-03-20T12:17:58;14.90;87.80
4602;DHT22;2313;48.552;9.370;2023-03-20T12:20:43;15.00;90.20
4602;DHT22;2313;48.552;9.370;2023-03-20T12:23:12;14.70;86.30
4602;DHT22;2313;48.552;9.370;2023-03-20T12:25:50;14.60;88.80
4602;DHT22;2313;48.552;9.370;2023-03-20T12:28:29;14.50;89.40
4602;DHT22;2313;48.552;9.370;2023-03-20T12:31:11;14.40;90.20
4602;DHT22;2313;48.552;9.370;2023-03-20T12:33:53;14.50;91.80
4602;DHT22;2313;48.552;9.370;2023-03-20T12:36:35;14.60;91.20
4602;DHT22;2313;48.552;9.370;2023-03-20T12:39:05;14.80;92.20
4602;DHT22;2313;48.552;9.370;2023-03-20T12:47:28;14.70;87.70
4602;DHT22;2313;48.552;9.370;2023-03-20T12:56:06;14.60;89.70
4602;DHT22;2313;48.552;9.370;2023-03-20T13:01:39;14.20;87.00
4602;DHT22;2313;48.552;9.370;2023-03-20T13:04:44;14.20;90.40
4602;DHT22;2313;48.552;9.370;2023-03-20T13:07:21;14.20;90.30
4602;DHT22;2313;48.552;9.370;2023-03-20T13:18:15;14.30;91.50
4602;DHT22;2313;48.552;9.370;2023-03-20T13:20:56;14.30;90.80
4602;DHT22;2313;48.552;9.370;2023-03-20T13:31:47;14.70;92.10
4602;DHT22;2313;48.552;9.370;2023-03-20T13:34:29;14.60;91.70
4602;DHT22;2313;48.552;9.370;2023-03-20T13:37:20;14.60;91.40
4602;DHT22;2313;48.552;9.370;2023-03-20T13:42:33;14.40;90.80
4602;DHT22;2313;48.552;9.370;2023-03-20T13:45:06;14.40;91.70
4602;DHT22;2313;48.552;9.370;2023-03-20T13:47:34;14.20;91.10
4602;DHT22;2313;48.552;9.370;2023-03-20T13:52:56;14.10;92.20
4602;DHT22;2313;48.552;9.370;2023-03-20T13:55:42;14.20;91.90
4602;DHT22;2313;48.552;9.370;2023-03-20T14:01:28;14.30;91.80
4602;DHT22;2313;48.552;9.370;2023-03-20T14:03:57;14.30;91.60
4602;DHT22;2313;48.552;9.370;2023-03-20T14:08:57;14.50;90.00
4602;DHT22;2313;48.552;9.370;2023-03-20T14:13:53;14.30;91.20
4602;DHT22;2313;48.552;9.370;2023-03-20T14:16:20;14.10;91.00
4602;DHT22;2313;48.552;9.370;2023-03-20T14:19:02;14.10;91.10
4602;DHT22;2313;48.552;9.370;2023-03-20T14:21:28;14.00;90.70
4602;DHT22;2313;48.552;9.370;2023-03-20T14:24:05;14.20;91.70
4602;DHT22;2313;48.552;9.370;2023-03-20T14:26:36;14.30;91.40
4602;DHT22;2313;48.552;9.370;2023-03-20T14:31:38;14.50;90.20
4602;DHT22;2313;48.552;9.370;2023-03-20T14:37:02;14.10;89.80
4602;DHT22;2313;48.552;9.370;2023-03-20T14:45:05;14.20;91.30
4602;DHT22;2313;48.552;9.370;2023-03-20T15:01:03;14.10;88.20
4602;DHT22;2313;48.552;9.370;2023-03-20T15:03:29;14.10;88.30
4602;DHT22;2313;48.552;9.370;2023-03-20T15:06:01;14.10;86.90
4602;DHT22;2313;48.552;9.370;2023-03-20T15:08:31;14.10;86.70
4602;DHT22;2313;48.552;9.370;2023-03-20T15:11:06;13.90;87.10
4602;DHT22;2313;48.552;9.370;2023-03-20T15:13:34;13.90;88.10
4602;DHT22;2313;48.552;9.370;2023-03-20T15:18:42;14.00;88.30
4602;DHT22;2313;48.552;9.370;2023-03-20T15:21:18;14.00;87.90
4602;DHT22;2313;48.552;9.370;2023-03-20T15:23:45;13.90;86.10
4602;DHT22;2313;48.552;9.370;2023-03-20T15:26:17;13.90;87.40
4602;DHT22;2313;48.552;9.370;2023-03-20T15:28:44;13.90;87.50
4602;DHT22;2313;48.552;9.370;2023-03-20T15:31:25;13.80;87.90
4602;DHT22;2313;48.552;9.370;2023-03-20T15:33:52;13.80;88.00
4602;DHT22;2313;48.552;9.370;2023-03-20T15:36:24;13.80;88.30
4602;DHT22;2313;48.552;9.370;2023-03-20T15:38:50;13.80;88.70
4602;DHT22;2313;48.552;9.370;2023-03-20T15:41:29;13.70;86.80
4602;DHT22;2313;48.552;9.370;2023-03-20T15:44:19;13.60;87.50
4602;DHT22;2313;48.552;9.370;2023-03-20T15:49:30;13.70;87.80
4602;DHT22;2313;48.552;9.370;2023-03-20T15:51:59;13.70;88.80
4602;DHT22;2313;48.552;9.370;2023-03-20T15:54:27;13.70;88.30
4602;DHT22;2313;48.552;9.370;2023-03-20T15:56:56;13.80;89.10
4602;DHT22;2313;48.552;9.370;2023-03-20T15:59:27;13.70;89.60
4602;DHT22;2313;48.552;9.370;2023-03-20T16:01:55;13.60;90.30
4602;DHT22;2313;48.552;9.370;2023-03-20T16:04:22;13.60;90.50
4602;DHT22;2313;48.552;9.370;2023-03-20T16:06:52;13.60;90.80
4602;DHT22;2313;48.552;9.370;2023-03-20T16:09:18;13.60;90.90
4602;DHT22;2313;48.552;9.370;2023-03-20T16:11:46;13.50;90.30
4602;DHT22;2313;48.552;9.370;2023-03-20T16:14:24;13.40;89.90
4602;DHT22;2313;48.552;9.370;2023-03-20T16:16:52;13.30;91.10
4602;DHT22;2313;48.552;9.370;2023-03-20T16:19:19;13.30;91.10
4602;DHT22;2313;48.552;9.370;2023-03-20T16:21:54;13.30;91.20
4602;DHT22;2313;48.552;9.370;2023-03-20T16:24:28;13.30;91.50
4602;DHT22;2313;48.552;9.370;2023-03-20T16:26:55;13.20;91.00
4602;DHT22;2313;48.552;9.370;2023-03-20T16:29:23;13.20;91.60
4602;DHT22;2313;48.552;9.370;2023-03-20T16:32:03;13.10;90.20
4602;DHT22;2313;48.552;9.370;2023-03-20T16:34:35;13.10;91.30
4602;DHT22;2313;48.552;9.370;2023-03-20T16:37:26;13.10;91.80
4602;DHT22;2313;48.552;9.370;2023-03-20T16:40:31;12.90;91.90
4602;DHT22;2313;48.552;9.370;2023-03-20T16:45:41;12.90;93.30
4602;DHT22;2313;48.552;9.370;2023-03-20T16:50:39;12.80;92.80
4602;DHT22;2313;48.552;9.370;2023-03-20T16:53:27;12.80;93.70
4602;DHT22;2313;48.552;9.370;2023-03-20T16:55:55;12.80;93.90
4602;DHT22;2313;48.552;9.370;2023-03-20T16:58:27;12.80;93.80
4602;DHT22;2313;48.552;9.370;2023-03-20T17:01:02;12.70;93.80
4602;DHT22;2313;48.552;9.370;2023-03-20T17:03:43;12.60;94.30
4602;DHT22;2313;48.552;9.370;2023-03-20T17:08:52;12.50;94.40
4602;DHT22;2313;48.552;9.370;2023-03-20T17:11:34;12.50;94.90
4602;DHT22;2313;48.552;9.370;2023-03-20T17:14:00;12.40;94.40
4602;DHT22;2313;48.552;9.370;2023-03-20T17:16:27;12.30;94.60
4602;DHT22;2313;48.552;9.370;2023-03-20T17:18:59;12.20;94.70
4602;DHT22;2313;48.552;9.370;2023-03-20T17:21:25;12.10;94.20
4602;DHT22;2313;48.552;9.370;2023-03-20T17:23:51;12.10;94.80
4602;DHT22;2313;48.552;9.370;2023-03-20T17:26:16;12.00;95.10
4602;DHT22;2313;48.552;9.370;2023-03-20T17:28:42;12.00;95.10
4602;DHT22;2313;48.552;9.370;2023-03-20T17:31:17;11.90;95.50
4602;DHT22;2313;48.552;9.370;2023-03-20T17:33:44;11.90;95.60
4602;DHT22;2313;48.552;9.370;2023-03-20T17:38:39;11.80;96.40
4602;DHT22;2313;48.552;9.370;2023-03-20T17:41:10;11.80;96.20
4602;DHT22;2313;48.552;9.370;2023-03-20T17:43:37;11.80;96.20
4602;DHT22;2313;48.552;9.370;2023-03-20T17:46:03;11.80;96.20
4602;DHT22;2313;48.552;9.370;2023-03-20T17:48:29;11.80;96.30
4602;DHT22;2313;48.552;9.370;2023-03-20T17:50:55;11.80;96.80
4602;DHT22;2313;48.552;9.370;2023-03-20T17:53:23;11.70;96.70
4602;DHT22;2313;48.552;9.370;2023-03-20T17:55:53;11.70;97.00
4602;DHT22;2313;48.552;9.370;2023-03-20T17:58:21;11.60;96.90
4602;DHT22;2313;48.552;9.370;2023-03-20T18:00:51;11.70;96.80
4602;DHT22;2313;48.552;9.370;2023-03-20T18:03:18;11.50;97.00
4602;DHT22;2313;48.552;9.370;2023-03-20T18:05:48;11.50;98.00
4602;DHT22;2313;48.552;9.370;2023-03-20T18:08:19;11.50;97.70
4602;DHT22;2313;48.552;9.370;2023-03-20T18:10:46;11.60;97.90
4602;DHT22;2313;48.552;9.370;2023-03-20T18:13:12;11.50;98.10
4602;DHT22;2313;48.552;9.370;2023-03-20T18:15:38;11.50;98.30
4602;DHT22;2313;48.552;9.370;2023-03-20T18:18:06;11.50;99.00
4602;DHT22;2313;48.552;9.370;2023-03-20T18:20:35;11.40;99.90
4602;DHT22;2313;48.552;9.370;2023-03-20T18:23:01;11.30;99.80
4602;DHT22;2313;48.552;9.370;2023-03-20T18:25:27;11.40;99.90
4602;DHT22;2313;48.552;9.370;2023-03-20T18:27:56;11.30;99.90
4602;DHT22;2313;48.552;9.370;2023-03-20T18:30:25;11.30;99.90
4602;DHT22;2313;48.552;9.370;2023-03-20T18:32:51;11.30;99.90
4602;DHT22;2313;48.552;9.370;2023-03-20T18:35:17;11.20;99.90
4602;DHT22;2313;48.552;9.370;2023-03-20T18:37:43;11.10;99.90
4602;DHT22;2313;48.552;9.370;2023-03-20T18:40:27;11.20;99.90
4602;DHT22;2313;48.552;9.370;2023-03-20T18:42:54;11.10;99.90
4602;DHT22;2313;48.552;9.370;2023-03-20T18:45:21;11.10;99.90
4602;DHT22;2313;48.552;9.370;2023-03-20T18:47:47;11.10;99.90
4602;DHT22;2313;48.552;9.370;2023-03-20T18:50:26;11.10;99.90
4602;DHT22;2313;48.552;9.370;2023-03-20T18:52:53;11.10;99.90
4602;DHT22;2313;48.552;9.370;2023-03-20T18:55:19;11.20;99.90
4602;DHT22;2313;48.552;9.370;2023-03-20T18:57:46;11.20;99.90
4602;DHT22;2313;48.552;9.370;2023-03-20T19:02:40;11.10;99.90